Time;durP1;ratioP1;P1;durP2;ratioP2;P2;SDS_P1;SDS_P2;PMS_P1;PMS_P2;Temp;Humidity;BMP_temperature;BMP_pressure;BME280_temperature;BME280_humidity;BME280_pressure;Samples;Min_cycle;Max_cycle;Signal;HPM_P1;HPM_P2
2023/04/22 00:00:12;;;;;;;1.17;1.00;;;9.20;99.60;;;;;;4993830;28;20177;-72
2023/04/22 00:02:39;;;;;;;0.50;0.50;;;9.30;99.90;;;;;;4993587;28;20503;-72
2023/04/22 00:05:06;;;;;;;0.88;0.88;;;9.20;99.80;;;;;;4993537;28;20181;-69
2023/04/22 00:07:32;;;;;;;0.30;0.30;;;9.30;99.70;;;;;;4993305;28;20330;-72
2023/04/22 00:09:58;;;;;;;0.60;0.60;;;9.30;99.20;;;;;;4993741;28;20256;-67
2023/04/22 00:12:23;;;;;;;1.53;1.43;;;9.40;99.90;;;;;;4993413;28;20403;-70
2023/04/22 00:14:49;;;;;;;0.40;0.40;;;9.20;99.50;;;;;;4993459;28;20175;-70
2023/04/22 00:17:15;;;;;;;0.37;0.37;;;9.20;99.60;;;;;;4996804;28;20180;-72
2023/04/22 00:19:41;;;;;;;0.50;0.50;;;9.10;99.40;;;;;;4997241;28;20183;-69
2023/04/22 00:22:07;;;;;;;1.15;0.73;;;9.10;99.50;;;;;;4997178;28;20172;-70
2023/04/22 00:24:32;;;;;;;0.40;0.40;;;9.10;99.60;;;;;;4996962;28;20202;-71
2023/04/22 00:26:58;;;;;;;0.63;0.63;;;9.10;99.60;;;;;;4996828;28;20199;-72
2023/04/22 00:29:24;;;;;;;0.40;0.40;;;9.00;99.90;;;;;;4997221;28;20227;-72
2023/04/22 00:31:50;;;;;;;0.40;0.40;;;9.00;99.90;;;;;;4996943;28;20172;-69
2023/04/22 00:34:19;;;;;;;0.80;0.80;;;9.00;99.90;;;;;;4996746;28;20279;-70
2023/04/22 00:36:45;;;;;;;0.45;0.45;;;9.00;99.90;;;;;;4996747;28;20567;-68
2023/04/22 00:39:11;;;;;;;0.82;0.70;;;8.90;99.90;;;;;;4996939;28;20172;-71
2023/04/22 00:41:38;;;;;;;0.50;0.50;;;8.80;99.90;;;;;;4996849;28;20539;-70
2023/04/22 00:44:07;;;;;;;0.32;0.32;;;8.90;99.90;;;;;;4996508;28;20563;-68
2023/04/22 00:46:33;;;;;;;0.60;0.60;;;8.90;99.90;;;;;;4996722;28;20171;-71
2023/04/22 00:49:00;;;;;;;0.43;0.43;;;8.80;99.90;;;;;;4996276;28;20213;-69
2023/04/22 00:51:26;;;;;;;0.63;0.60;;;8.80;99.90;;;;;;4996528;28;20171;-71
2023/04/22 00:53:52;;;;;;;0.30;0.30;;;8.70;99.90;;;;;;4996863;28;20203;-70
2023/04/22 00:56:20;;;;;;;0.43;0.43;;;8.80;99.90;;;;;;4996430;28;20663;-71
2023/04/22 00:58:46;;;;;;;0.40;0.40;;;8.70;99.90;;;;;;4996396;28;20667;-71
2023/04/22 01:01:12;;;;;;;0.40;0.40;;;8.50;99.90;;;;;;4996195;28;20176;-72
2023/04/22 01:03:39;;;;;;;0.52;0.52;;;8.50;99.90;;;;;;4996167;28;20551;-70
2023/04/22 01:06:05;;;;;;;0.30;0.30;;;8.50;99.90;;;;;;4996252;28;20691;-70
2023/04/22 01:08:37;;;;;;;0.30;0.30;;;8.40;99.90;;;;;;4996027;28;20289;-72
2023/04/22 01:11:03;;;;;;;0.50;0.50;;;8.40;99.90;;;;;;4996242;28;20176;-71
2023/04/22 01:13:29;;;;;;;9.55;1.40;;;8.50;99.90;;;;;;4996187;28;20184;-70
2023/04/22 01:15:55;;;;;;;0.40;0.40;;;8.50;99.90;;;;;;4996047;28;20176;-70
2023/04/22 01:18:21;;;;;;;0.43;0.43;;;8.50;99.90;;;;;;4995815;28;20176;-71
2023/04/22 01:20:46;;;;;;;0.30;0.30;;;8.50;99.90;;;;;;4994659;28;20426;-70
2023/04/22 01:23:18;;;;;;;0.47;0.47;;;8.50;99.80;;;;;;4995895;28;20207;-70
2023/04/22 01:25:45;;;;;;;0.40;0.40;;;8.40;99.80;;;;;;4995908;28;20229;-70
2023/04/22 01:28:11;;;;;;;0.52;0.40;;;8.30;99.90;;;;;;4994790;28;20194;-71
2023/04/22 01:30:38;;;;;;;0.40;0.40;;;8.20;99.90;;;;;;4995868;28;20213;-69
2023/04/22 01:33:04;;;;;;;0.40;0.40;;;8.10;99.90;;;;;;4995776;28;20254;-71
2023/04/22 01:35:35;;;;;;;0.50;0.50;;;8.10;99.90;;;;;;4995659;28;20197;-68
2023/04/22 01:38:08;;;;;;;0.30;0.30;;;8.10;99.90;;;;;;4995677;28;20180;-69
2023/04/22 01:40:34;;;;;;;0.50;0.50;;;8.00;99.90;;;;;;4995755;28;20585;-69
2023/04/22 01:43:00;;;;;;;0.50;0.50;;;8.00;99.90;;;;;;4995526;28;20191;-69
2023/04/22 01:45:27;;;;;;;0.50;0.50;;;8.10;99.90;;;;;;4995447;28;20175;-70
2023/04/22 01:47:52;;;;;;;0.40;0.40;;;8.00;99.90;;;;;;4995305;28;20297;-71
2023/04/22 01:50:19;;;;;;;1.33;1.27;;;8.00;99.90;;;;;;4995429;28;20702;-71
2023/04/22 01:52:44;;;;;;;0.45;0.45;;;7.90;99.90;;;;;;4995180;28;20949;-69
2023/04/22 01:55:10;;;;;;;1.40;0.77;;;8.00;99.90;;;;;;4995316;28;20186;-70
2023/04/22 01:57:36;;;;;;;0.70;0.70;;;8.00;99.90;;;;;;4995087;28;20180;-71
2023/04/22 02:00:02;;;;;;;0.67;0.67;;;7.90;99.90;;;;;;4995370;28;20179;-72
2023/04/22 02:02:28;;;;;;;0.80;0.80;;;8.00;99.90;;;;;;4995084;28;20184;-69
2023/04/22 02:04:53;;;;;;;0.50;0.50;;;7.90;99.90;;;;;;4995142;28;20183;-71
2023/04/22 02:07:19;;;;;;;0.40;0.40;;;7.80;99.90;;;;;;4994848;28;20242;-69
2023/04/22 02:09:44;;;;;;;0.60;0.60;;;7.80;99.90;;;;;;4995182;28;20175;-71
2023/04/22 02:12:10;;;;;;;0.60;0.60;;;7.80;99.90;;;;;;4995151;28;20166;-70
2023/04/22 02:14:36;;;;;;;0.40;0.40;;;7.80;99.90;;;;;;4995069;28;20195;-70
2023/04/22 02:17:02;;;;;;;0.40;0.40;;;7.70;99.90;;;;;;4994733;28;20219;-70
2023/04/22 02:19:28;;;;;;;0.93;0.93;;;7.80;99.90;;;;;;4994912;28;20539;-70
2023/04/22 02:21:54;;;;;;;0.30;0.30;;;7.70;99.90;;;;;;4995035;28;20176;-70
2023/04/22 02:24:20;;;;;;;0.68;0.68;;;7.60;99.90;;;;;;4994695;28;20210;-69
2023/04/22 02:26:46;;;;;;;0.50;0.50;;;7.60;99.90;;;;;;4994742;28;20183;-72
2023/04/22 02:29:12;;;;;;;0.40;0.40;;;7.60;99.90;;;;;;4994650;28;20171;-72
2023/04/22 02:31:37;;;;;;;0.40;0.40;;;7.50;99.90;;;;;;4994657;28;20440;-69
2023/04/22 02:34:03;;;;;;;0.30;0.30;;;7.40;99.90;;;;;;4994637;28;20846;-70
2023/04/22 02:36:30;;;;;;;1.47;1.47;;;7.50;99.90;;;;;;4994597;28;20568;-68
2023/04/22 02:38:56;;;;;;;0.40;0.40;;;7.60;99.90;;;;;;4994298;28;20429;-71
2023/04/22 02:41:22;;;;;;;0.50;0.50;;;7.60;99.90;;;;;;4994493;28;20226;-69
2023/04/22 02:43:47;;;;;;;0.40;0.40;;;7.50;99.90;;;;;;4994233;28;20202;-69
2023/04/22 02:46:15;;;;;;;0.40;0.40;;;7.50;99.90;;;;;;4994648;28;20538;-72
2023/04/22 02:48:41;;;;;;;0.35;0.35;;;7.50;99.90;;;;;;4994128;28;20226;-68
2023/04/22 02:51:06;;;;;;;6.45;2.65;;;7.50;99.90;;;;;;4994561;28;20222;-70
2023/04/22 02:53:32;;;;;;;0.40;0.40;;;7.50;99.90;;;;;;4994209;28;20206;-71
2023/04/22 02:55:57;;;;;;;0.73;0.73;;;7.50;99.90;;;;;;4994255;28;20216;-71
2023/04/22 02:58:25;;;;;;;0.70;0.70;;;7.40;99.90;;;;;;4994033;28;20178;-69
2023/04/22 03:00:51;;;;;;;0.52;0.52;;;7.50;99.90;;;;;;4994188;28;20177;-70
2023/04/22 03:03:17;;;;;;;0.40;0.40;;;7.40;99.90;;;;;;4994324;28;20211;-71
2023/04/22 03:05:42;;;;;;;0.53;0.53;;;7.40;99.90;;;;;;4994125;28;20178;-70
2023/04/22 03:08:08;;;;;;;0.40;0.40;;;7.40;99.90;;;;;;4993944;28;20698;-69
2023/04/22 03:10:34;;;;;;;0.50;0.50;;;7.50;99.90;;;;;;4994180;28;20167;-70
2023/04/22 03:13:00;;;;;;;0.63;0.63;;;7.30;99.90;;;;;;4994121;28;20198;-70
2023/04/22 03:15:25;;;;;;;1.23;1.17;;;7.30;99.90;;;;;;4994024;28;20399;-68
2023/04/22 03:17:51;;;;;;;0.47;0.47;;;7.20;99.90;;;;;;4992736;28;20713;-71
2023/04/22 03:20:16;;;;;;;0.67;0.67;;;7.30;99.90;;;;;;4994107;28;20175;-70
2023/04/22 03:22:42;;;;;;;0.60;0.60;;;7.00;99.90;;;;;;4993215;28;20175;-68
2023/04/22 03:25:10;;;;;;;0.37;0.37;;;7.40;99.90;;;;;;4993929;28;20268;-71
2023/04/22 03:27:35;;;;;;;1.23;1.17;;;7.40;99.90;;;;;;4993771;28;20211;-68
2023/04/22 03:30:01;;;;;;;1.87;1.00;;;7.40;99.90;;;;;;4993936;28;20174;-71
2023/04/22 03:32:27;;;;;;;0.40;0.40;;;7.10;99.90;;;;;;4993732;28;20651;-69
2023/04/22 03:34:52;;;;;;;0.50;0.50;;;7.30;99.90;;;;;;4993734;28;20182;-70
2023/04/22 03:37:18;;;;;;;0.67;0.67;;;7.20;99.90;;;;;;4993868;28;20181;-69
2023/04/22 03:39:44;;;;;;;0.50;0.50;;;7.20;99.90;;;;;;4993724;28;20173;-71
2023/04/22 03:42:12;;;;;;;0.43;0.40;;;7.30;99.90;;;;;;4994076;28;20183;-71
2023/04/22 03:44:38;;;;;;;0.52;0.52;;;7.30;99.90;;;;;;4993654;28;20549;-71
2023/04/22 03:47:03;;;;;;;0.60;0.60;;;7.40;99.90;;;;;;4993438;28;20294;-71
2023/04/22 03:49:29;;;;;;;0.73;0.73;;;7.40;99.90;;;;;;4993884;28;20175;-70
2023/04/22 03:51:55;;;;;;;1.80;1.80;;;7.50;99.90;;;;;;4996723;28;20185;-68
2023/04/22 03:54:20;;;;;;;0.87;0.87;;;7.50;99.90;;;;;;4996205;28;20279;-68
2023/04/22 03:56:46;;;;;;;0.50;0.50;;;7.50;99.90;;;;;;4997519;28;20171;-71
2023/04/22 03:59:11;;;;;;;0.43;0.43;;;7.50;99.90;;;;;;4997739;28;20266;-70
2023/04/22 04:01:37;;;;;;;0.93;0.93;;;7.50;99.90;;;;;;4997499;28;20181;-70
2023/04/22 04:04:03;;;;;;;0.70;0.70;;;7.40;99.90;;;;;;4997385;28;20187;-70
2023/04/22 04:06:28;;;;;;;1.33;1.33;;;7.40;99.90;;;;;;4997391;28;20199;-70
2023/04/22 04:08:54;;;;;;;0.37;0.37;;;7.40;99.90;;;;;;4997074;28;20199;-69
2023/04/22 04:11:19;;;;;;;0.50;0.50;;;7.50;99.90;;;;;;4997213;28;20176;-70
2023/04/22 04:13:45;;;;;;;0.67;0.67;;;7.60;99.90;;;;;;4997081;28;20197;-70
2023/04/22 04:16:11;;;;;;;0.30;0.30;;;7.70;99.90;;;;;;4997162;28;20177;-69
2023/04/22 04:18:37;;;;;;;0.63;0.63;;;7.70;99.90;;;;;;4996816;28;20178;-69
2023/04/22 04:21:03;;;;;;;0.40;0.40;;;7.70;99.90;;;;;;4997068;28;20229;-69
2023/04/22 04:23:28;;;;;;;1.13;1.13;;;7.70;99.90;;;;;;4996932;28;20195;-70
2023/04/22 04:25:54;;;;;;;0.93;0.77;;;7.80;99.90;;;;;;4997081;28;20181;-68
2023/04/22 04:28:20;;;;;;;0.40;0.40;;;7.80;99.90;;;;;;4996703;28;20210;-68
2023/04/22 04:30:46;;;;;;;0.60;0.60;;;7.90;99.90;;;;;;4996933;28;20174;-72
2023/04/22 04:33:15;;;;;;;0.70;0.70;;;8.00;99.90;;;;;;4996997;28;20195;-70
2023/04/22 04:35:42;;;;;;;0.60;0.60;;;7.90;99.90;;;;;;4997041;28;20565;-69
2023/04/22 04:38:07;;;;;;;0.32;0.32;;;7.70;99.90;;;;;;4996677;28;20180;-71
2023/04/22 04:40:35;;;;;;;1.03;0.93;;;7.60;99.90;;;;;;4996734;28;20177;-70
2023/04/22 04:43:03;;;;;;;0.90;0.90;;;7.60;99.90;;;;;;4996746;28;20594;-71
2023/04/22 04:45:28;;;;;;;0.68;0.68;;;7.70;99.90;;;;;;4996578;28;20177;-71
2023/04/22 04:47:54;;;;;;;2.90;2.80;;;7.70;99.90;;;;;;4996241;28;20213;-71
2023/04/22 04:50:21;;;;;;;1.73;1.63;;;7.70;99.90;;;;;;4996551;28;20522;-71
2023/04/22 04:52:50;;;;;;;1.50;1.40;;;7.60;99.90;;;;;;4996350;28;20252;-71
2023/04/22 04:55:16;;;;;;;0.70;0.70;;;7.70;99.90;;;;;;4996445;28;20176;-70
2023/04/22 04:57:44;;;;;;;0.50;0.50;;;7.70;99.90;;;;;;4994978;28;20252;-71
2023/04/22 05:00:10;;;;;;;0.82;0.70;;;7.70;99.90;;;;;;4996520;28;20205;-69
2023/04/22 05:02:35;;;;;;;0.30;0.30;;;7.90;99.90;;;;;;4994988;28;20199;-71
2023/04/22 05:05:02;;;;;;;0.40;0.40;;;7.80;99.90;;;;;;4996414;28;20179;-72
2023/04/22 05:07:27;;;;;;;0.40;0.40;;;7.90;99.90;;;;;;4996019;28;20254;-69
2023/04/22 05:09:53;;;;;;;0.50;0.50;;;8.10;99.90;;;;;;4996234;28;20255;-71
2023/04/22 05:12:19;;;;;;;0.30;0.30;;;8.30;99.90;;;;;;4996268;28;20178;-70
2023/04/22 05:14:45;;;;;;;1.40;1.40;;;8.40;99.90;;;;;;4995978;28;20422;-69
2023/04/22 05:17:11;;;;;;;3.90;3.30;;;8.50;99.70;;;;;;4995854;28;20419;-70
2023/04/22 05:19:37;;;;;;;0.40;0.40;;;8.50;99.40;;;;;;4996016;28;20188;-69
2023/04/22 05:22:03;;;;;;;2.00;1.90;;;8.70;99.30;;;;;;4996013;28;20183;-71
2023/04/22 05:24:28;;;;;;;0.50;0.40;;;8.70;99.00;;;;;;4995815;28;20282;-71
2023/04/22 05:26:54;;;;;;;0.30;0.30;;;9.00;98.90;;;;;;4995727;28;20200;-72
2023/04/22 05:29:20;;;;;;;0.40;0.40;;;9.50;98.70;;;;;;4994740;28;20531;-71
2023/04/22 05:31:45;;;;;;;0.33;0.33;;;10.20;97.70;;;;;;4995641;28;20172;-70
2023/04/22 05:34:11;;;;;;;0.83;0.83;;;10.90;96.90;;;;;;4995643;28;20215;-69
2023/04/22 05:36:37;;;;;;;0.57;0.57;;;11.30;94.80;;;;;;4996044;28;20176;-70
2023/04/22 05:39:03;;;;;;;0.30;0.30;;;11.30;94.00;;;;;;4995410;28;20979;-70
2023/04/22 05:41:28;;;;;;;1.17;1.17;;;11.40;94.30;;;;;;4995645;28;20407;-71
2023/04/22 05:43:54;;;;;;;0.40;0.40;;;11.50;94.30;;;;;;4995683;28;20594;-69
2023/04/22 05:46:20;;;;;;;0.40;0.40;;;11.80;94.10;;;;;;4995445;28;20179;-71
2023/04/22 05:48:45;;;;;;;0.67;0.67;;;12.40;93.50;;;;;;4995211;28;20204;-70
2023/04/22 05:51:11;;;;;;;1.57;0.87;;;13.10;92.50;;;;;;4995503;28;20540;-71
2023/04/22 05:53:36;;;;;;;1.00;1.00;;;13.90;91.30;;;;;;4995167;28;20215;-71
2023/04/22 05:56:02;;;;;;;1.07;0.90;;;15.00;89.30;;;;;;4995318;28;20169;-69
2023/04/22 05:58:28;;;;;;;0.57;0.57;;;16.20;82.90;;;;;;4993838;28;20239;-72
2023/04/22 06:00:53;;;;;;;2.43;2.23;;;17.00;79.30;;;;;;4995076;28;20544;-69
2023/04/22 06:03:19;;;;;;;0.70;0.70;;;17.20;73.80;;;;;;4995082;28;20278;-72
2023/04/22 06:05:45;;;;;;;1.23;0.90;;;16.80;72.20;;;;;;4995166;28;20173;-72
2023/04/22 06:08:11;;;;;;;1.83;1.73;;;16.70;74.40;;;;;;4995038;28;20217;-73
2023/04/22 06:10:36;;;;;;;0.70;0.70;;;16.90;75.00;;;;;;4995133;28;20411;-71
2023/04/22 06:13:02;;;;;;;0.40;0.40;;;17.20;74.60;;;;;;4994592;28;20436;-72
2023/04/22 06:15:28;;;;;;;1.00;0.93;;;17.80;73.50;;;;;;4994886;28;20171;-71
2023/04/22 06:17:54;;;;;;;0.87;0.87;;;18.50;71.40;;;;;;4994860;28;20186;-71
2023/04/22 06:20:19;;;;;;;2.00;1.70;;;19.10;67.90;;;;;;4994909;28;20658;-71
2023/04/22 06:22:45;;;;;;;1.33;1.20;;;19.40;66.60;;;;;;4994874;28;20199;-72
2023/04/22 06:25:11;;;;;;;1.10;1.00;;;19.20;64.70;;;;;;4994721;28;20234;-69
2023/04/22 06:27:36;;;;;;;0.73;0.60;;;19.20;65.00;;;;;;4993266;28;20222;-72
2023/04/22 06:30:03;;;;;;;0.50;0.50;;;19.30;65.10;;;;;;4994844;28;20168;-70
2023/04/22 06:32:29;;;;;;;0.70;0.70;;;19.20;75.00;;;;;;4994756;28;20769;-70
2023/04/22 06:34:54;;;;;;;0.63;0.63;;;19.40;64.60;;;;;;4994588;28;20414;-71
2023/04/22 06:37:20;;;;;;;0.80;0.80;;;20.10;62.40;;;;;;4994726;28;20183;-70
2023/04/22 06:39:46;;;;;;;2.43;0.50;;;20.60;59.30;;;;;;4994827;28;20172;-69
2023/04/22 06:42:11;;;;;;;1.33;1.23;;;20.70;59.40;;;;;;4994430;28;20175;-69
2023/04/22 06:44:37;;;;;;;1.00;0.93;;;20.60;61.10;;;;;;4994882;28;20232;-67
2023/04/22 06:47:03;;;;;;;1.10;1.00;;;20.30;61.70;;;;;;4994059;28;20172;-69
2023/04/22 06:49:28;;;;;;;0.70;0.70;;;20.00;61.10;;;;;;4994287;28;20291;-67
2023/04/22 06:51:54;;;;;;;1.20;0.93;;;19.90;62.40;;;;;;4994227;28;20188;-70
2023/04/22 06:54:20;;;;;;;0.90;0.90;;;19.80;61.80;;;;;;4994231;28;20216;-69
2023/04/22 06:56:46;;;;;;;0.53;0.53;;;19.60;61.60;;;;;;4993988;28;20623;-70
2023/04/22 06:59:11;;;;;;;0.50;0.50;;;19.40;61.00;;;;;;4994269;28;20231;-68
2023/04/22 07:01:37;;;;;;;0.73;0.73;;;19.20;61.40;;;;;;4994051;28;20168;-71
2023/04/22 07:04:02;;;;;;;0.50;0.50;;;19.20;61.10;;;;;;4993986;28;20291;-71
2023/04/22 07:06:28;;;;;;;0.80;0.53;;;19.10;59.90;;;;;;4994187;28;20196;-71
2023/04/22 07:08:54;;;;;;;0.50;0.50;;;19.00;62.50;;;;;;4994021;28;20197;-71
2023/04/22 07:11:20;;;;;;;0.57;0.57;;;19.10;63.10;;;;;;4994104;28;20172;-71
2023/04/22 07:13:45;;;;;;;0.50;0.50;;;19.10;62.70;;;;;;4994169;28;20199;-72
2023/04/22 07:16:11;;;;;;;0.43;0.43;;;18.90;63.30;;;;;;4992665;28;20411;-72
2023/04/22 07:18:38;;;;;;;0.87;0.83;;;18.70;65.00;;;;;;4993825;28;20183;-69
2023/04/22 07:21:04;;;;;;;0.30;0.30;;;18.50;64.20;;;;;;4994180;28;20173;-72
2023/04/22 07:23:30;;;;;;;0.50;0.50;;;18.60;65.20;;;;;;4993916;28;20437;-71
2023/04/22 07:25:55;;;;;;;0.50;0.50;;;19.20;65.50;;;;;;4993374;28;20181;-72
2023/04/22 07:28:21;;;;;;;0.40;0.40;;;19.90;63.30;;;;;;4993613;28;20200;-72
2023/04/22 07:30:47;;;;;;;0.63;0.63;;;20.60;61.40;;;;;;4993835;28;20176;-72
2023/04/22 07:33:13;;;;;;;0.40;0.40;;;21.60;60.00;;;;;;4993792;28;20200;-70
2023/04/22 07:35:39;;;;;;;0.60;0.60;;;22.70;57.30;;;;;;4993770;28;20203;-71
2023/04/22 07:38:04;;;;;;;0.80;0.50;;;23.40;55.30;;;;;;4993646;28;20178;-71
2023/04/22 07:40:30;;;;;;;1.20;0.90;;;24.40;54.00;;;;;;4993931;28;20655;-73
2023/04/22 07:42:56;;;;;;;0.70;0.50;;;25.70;50.90;;;;;;4993912;28;20192;-73
2023/04/22 07:45:21;;;;;;;0.80;0.80;;;26.50;48.60;;;;;;4993793;28;20508;-71
2023/04/22 07:47:47;;;;;;;0.67;0.67;;;27.40;47.20;;;;;;4993446;28;20199;-72
2023/04/22 07:50:13;;;;;;;0.60;0.60;;;28.50;43.90;;;;;;4992691;28;20179;-72
2023/04/22 07:52:38;;;;;;;0.40;0.40;;;29.10;42.40;;;;;;4993541;28;20549;-72
2023/04/22 07:55:05;;;;;;;1.07;0.60;;;29.40;41.50;;;;;;4992590;28;20173;-69
2023/04/22 07:57:35;;;;;;;0.40;0.40;;;29.30;39.10;;;;;;4993109;28;20175;-71
2023/04/22 08:00:00;;;;;;;0.60;0.50;;;29.00;38.30;;;;;;4993478;28;20407;-72
2023/04/22 08:02:26;;;;;;;0.50;0.50;;;;;;;;;;4992368;28;20467;-70
2023/04/22 08:04:52;;;;;;;0.40;0.30;;;29.60;38.50;;;;;;4993960;28;20254;-67
2023/04/22 08:07:17;;;;;;;0.63;0.57;;;30.40;37.30;;;;;;4993896;28;20958;-71
2023/04/22 08:09:43;;;;;;;0.40;0.40;;;30.40;37.00;;;;;;4991924;28;20176;-70
2023/04/22 08:12:09;;;;;;;0.60;0.60;;;29.80;36.80;;;;;;4993836;28;20625;-72
2023/04/22 08:14:34;;;;;;;0.40;0.40;;;29.20;38.00;;;;;;4992460;28;20192;-71
2023/04/22 08:17:00;;;;;;;0.60;0.50;;;28.40;38.90;;;;;;4993477;28;20168;-73
2023/04/22 08:19:25;;;;;;;0.90;0.70;;;28.00;37.20;;;;;;4993820;28;20215;-73
2023/04/22 08:21:51;;;;;;;0.40;0.40;;;27.90;36.20;;;;;;4993938;28;20176;-70
2023/04/22 08:24:17;;;;;;;0.60;0.60;;;28.10;35.60;;;;;;4993458;28;20239;-71
2023/04/22 08:26:42;;;;;;;1.57;0.63;;;28.30;38.00;;;;;;4993586;28;20164;-65
2023/04/22 08:29:08;;;;;;;0.40;0.40;;;28.10;38.90;;;;;;4993418;28;20199;-66
2023/04/22 08:31:34;;;;;;;0.40;0.40;;;27.30;40.30;;;;;;4993747;28;20223;-64
2023/04/22 08:34:00;;;;;;;0.40;0.40;;;26.20;41.80;;;;;;4994033;28;20831;-66
2023/04/22 08:36:26;;;;;;;0.50;0.50;;;25.20;42.80;;;;;;4994554;28;20172;-65
2023/04/22 08:38:53;;;;;;;0.40;0.40;;;24.20;44.10;;;;;;4997313;28;20511;-70
2023/04/22 08:41:21;;;;;;;0.73;0.60;;;23.20;40.00;;;;;;4996910;28;20481;-68
2023/04/22 08:43:47;;;;;;;0.60;0.60;;;22.90;39.30;;;;;;4996869;28;20402;-68
2023/04/22 08:46:16;;;;;;;0.40;0.40;;;22.80;39.80;;;;;;4996616;28;20436;-69
2023/04/22 08:48:42;;;;;;;0.40;0.40;;;22.70;40.60;;;;;;4996472;28;20992;-69
2023/04/22 08:51:08;;;;;;;0.53;0.53;;;22.70;41.70;;;;;;4996650;28;20394;-67
2023/04/22 08:53:34;;;;;;;0.60;0.60;;;22.90;39.70;;;;;;4995351;28;20968;-69
2023/04/22 08:56:00;;;;;;;0.60;0.60;;;23.30;39.80;;;;;;4996641;28;20168;-69
2023/04/22 08:58:27;;;;;;;0.50;0.50;;;23.80;39.50;;;;;;4996379;28;20195;-70
2023/04/22 09:00:53;;;;;;;0.47;0.47;;;24.50;39.20;;;;;;4996421;28;20412;-69
2023/04/22 09:03:20;;;;;;;0.40;0.40;;;25.10;39.60;;;;;;4996340;28;20509;-69
2023/04/22 09:05:50;;;;;;;0.40;0.40;;;25.30;37.10;;;;;;4996298;28;20777;-70
2023/04/22 09:08:15;;;;;;;0.50;0.50;;;25.70;37.60;;;;;;4995973;28;20476;-70
2023/04/22 09:10:41;;;;;;;0.53;0.50;;;25.90;36.30;;;;;;4996198;28;20956;-73
2023/04/22 09:13:07;;;;;;;0.73;0.70;;;26.10;36.10;;;;;;4996009;28;20196;-70
2023/04/22 09:15:33;;;;;;;0.50;0.50;;;25.80;34.80;;;;;;4996418;28;20212;-71
2023/04/22 09:17:58;;;;;;;0.93;0.60;;;25.80;35.60;;;;;;4995991;28;20523;-70
2023/04/22 09:20:28;;;;;;;0.50;0.40;;;26.00;35.60;;;;;;4996220;28;20495;-71
2023/04/22 09:22:56;;;;;;;0.47;0.40;;;26.10;35.00;;;;;;4995873;28;20545;-70
2023/04/22 09:25:24;;;;;;;1.43;0.60;;;25.80;34.80;;;;;;4995997;28;20469;-68
2023/04/22 09:27:50;;;;;;;1.00;0.80;;;25.40;35.60;;;;;;4995717;28;20542;-69
2023/04/22 09:30:23;;;;;;;0.40;0.40;;;25.70;36.30;;;;;;4995921;28;20389;-69
2023/04/22 09:32:56;;;;;;;0.50;0.47;;;26.10;34.90;;;;;;4995767;28;20394;-68
2023/04/22 09:35:26;;;;;;;0.50;0.50;;;25.60;34.80;;;;;;4995642;28;20424;-68
2023/04/22 09:37:51;;;;;;;1.00;0.93;;;25.00;35.10;;;;;;4995325;28;20411;-68
2023/04/22 09:40:18;;;;;;;1.40;0.77;;;24.90;35.90;;;;;;4995603;28;20404;-69
2023/04/22 09:42:51;;;;;;;0.47;0.47;;;25.00;35.60;;;;;;4995619;28;20175;-70
2023/04/22 09:45:27;;;;;;;0.43;0.43;;;25.20;35.60;;;;;;4995764;28;20415;-70
2023/04/22 09:47:54;;;;;;;0.50;0.50;;;25.00;35.50;;;;;;4993618;28;20474;-69
2023/04/22 09:50:23;;;;;;;0.73;0.73;;;24.70;36.50;;;;;;4995819;28;20382;-71
2023/04/22 09:53:06;;;;;;;0.77;0.70;;;24.60;36.70;;;;;;4995247;28;20446;-70
2023/04/22 09:55:36;;;;;;;1.70;0.80;;;24.50;37.60;;;;;;4995728;28;20408;-71
2023/04/22 09:58:10;;;;;;;2.30;1.60;;;24.70;36.80;;;;;;4995364;28;20404;-70
2023/04/22 10:00:47;;;;;;;2.20;1.23;;;24.40;36.30;;;;;;4995990;28;20400;-71
2023/04/22 10:03:14;;;;;;;0.83;0.83;;;24.10;36.90;;;;;;4995208;28;20939;-70
2023/04/22 10:05:40;;;;;;;0.50;0.50;;;23.80;37.90;;;;;;4995550;28;20407;-70
2023/04/22 10:08:08;;;;;;;0.60;0.60;;;23.70;38.10;;;;;;4994989;28;20451;-70
2023/04/22 10:10:35;;;;;;;0.80;0.80;;;23.10;39.30;;;;;;4995424;28;20403;-70
2023/04/22 10:13:03;;;;;;;0.83;0.83;;;22.90;39.90;;;;;;4995203;28;20405;-69
2023/04/22 10:15:49;;;;;;;0.50;0.50;;;22.70;40.10;;;;;;4995379;28;20450;-70
2023/04/22 10:18:23;;;;;;;0.50;0.50;;;22.90;39.50;;;;;;4995038;28;20386;-70
2023/04/22 10:20:50;;;;;;;0.57;0.57;;;22.90;39.30;;;;;;4995563;28;20422;-70
2023/04/22 10:23:22;;;;;;;0.70;0.70;;;23.10;40.00;;;;;;4995012;28;20998;-70
2023/04/22 10:25:52;;;;;;;0.50;0.50;;;23.00;38.30;;;;;;4994862;28;20415;-69
2023/04/22 10:28:21;;;;;;;0.70;0.50;;;22.70;38.20;;;;;;4994767;28;20426;-70
2023/04/22 10:30:47;;;;;;;2.40;0.63;;;22.60;39.30;;;;;;4994873;28;20382;-69
2023/04/22 10:33:30;;;;;;;0.83;0.57;;;22.30;38.50;;;;;;4994907;28;20489;-70
2023/04/22 10:36:08;;;;;;;0.50;0.50;;;22.10;37.50;;;;;;4994900;28;20366;-70
2023/04/22 10:38:38;;;;;;;0.67;0.50;;;22.00;37.70;;;;;;4994759;28;20739;-69
2023/04/22 10:41:04;;;;;;;0.50;0.50;;;21.90;37.50;;;;;;4993880;28;20393;-69
2023/04/22 10:43:43;;;;;;;0.40;0.40;;;22.00;37.70;;;;;;4994957;28;20490;-70
2023/04/22 10:46:31;;;;;;;0.80;0.70;;;21.90;38.60;;;;;;4995071;28;20420;-71
2023/04/22 10:49:06;;;;;;;0.60;0.60;;;21.90;39.10;;;;;;4993084;28;20443;-69
2023/04/22 10:51:46;;;;;;;1.43;1.13;;;22.20;40.10;;;;;;4994623;28;20412;-68
2023/04/22 10:54:30;;;;;;;0.90;0.90;;;22.00;39.70;;;;;;4994350;28;20919;-70
2023/04/22 10:57:23;;;;;;;0.40;0.40;;;22.00;40.20;;;;;;4994430;28;20471;-69
2023/04/22 10:59:52;;;;;;;0.80;0.80;;;22.10;39.30;;;;;;4993903;28;20398;-69
2023/04/22 11:02:19;;;;;;;0.50;0.50;;;22.10;38.90;;;;;;4994187;28;20495;-70
2023/04/22 11:04:45;;;;;;;0.60;0.60;;;22.10;39.10;;;;;;4994158;28;20428;-69
2023/04/22 11:07:26;;;;;;;0.43;0.43;;;21.90;39.10;;;;;;4994119;28;20411;-70
2023/04/22 11:10:00;;;;;;;0.60;0.50;;;21.60;39.70;;;;;;4992915;28;20404;-69
2023/04/22 11:12:34;;;;;;;0.57;0.57;;;21.50;40.10;;;;;;4994087;28;20407;-67
2023/04/22 11:15:04;;;;;;;0.70;0.70;;;21.20;40.20;;;;;;4994704;28;20409;-69
2023/04/22 11:17:30;;;;;;;1.03;0.80;;;20.90;40.80;;;;;;4994040;28;20495;-68
2023/04/22 11:19:57;;;;;;;0.50;0.50;;;20.70;40.70;;;;;;4994341;28;20522;-68
2023/04/22 11:22:23;;;;;;;0.50;0.40;;;20.30;41.40;;;;;;4994233;28;20415;-67
2023/04/22 11:24:59;;;;;;;0.70;0.70;;;20.10;42.50;;;;;;4993887;28;20521;-68
2023/04/22 11:27:25;;;;;;;0.57;0.57;;;19.90;42.30;;;;;;4994060;28;20458;-68
2023/04/22 11:30:06;;;;;;;0.40;0.40;;;19.70;45.50;;;;;;4994315;28;20469;-69
2023/04/22 11:32:33;;;;;;;0.40;0.40;;;19.80;49.10;;;;;;4993458;28;20438;-70
2023/04/22 11:35:03;;;;;;;0.50;0.50;;;20.00;43.90;;;;;;4992822;28;20438;-69
2023/04/22 11:37:29;;;;;;;0.83;0.83;;;19.90;43.30;;;;;;4992650;28;20850;-69
2023/04/22 11:39:59;;;;;;;0.60;0.60;;;19.90;43.30;;;;;;4993948;28;20430;-68
2023/04/22 11:42:25;;;;;;;0.47;0.40;;;19.90;43.70;;;;;;4993968;28;20438;-69
2023/04/22 11:44:50;;;;;;;1.43;1.10;;;19.90;43.60;;;;;;4993652;28;20513;-69
2023/04/22 11:47:18;;;;;;;1.87;0.70;;;20.00;43.80;;;;;;4993440;28;20185;-69
2023/04/22 11:50:17;;;;;;;0.63;0.50;;;20.00;44.10;;;;;;4993987;28;20821;-68
2023/04/22 11:52:51;;;;;;;0.60;0.60;;;19.80;44.10;;;;;;4961245;28;20847;-70
2023/04/22 11:55:31;;;;;;;1.47;0.47;;;19.70;44.40;;;;;;4993458;28;20415;-69
2023/04/22 11:58:17;;;;;;;0.80;0.80;;;19.50;44.90;;;;;;4992349;28;20427;-69
2023/04/22 12:00:49;;;;;;;0.63;0.60;;;19.20;46.00;;;;;;4993653;28;20415;-69
2023/04/22 12:03:20;;;;;;;0.40;0.40;;;19.10;46.80;;;;;;4993717;28;20470;-69
2023/04/22 12:05:46;;;;;;;0.60;0.60;;;19.10;47.20;;;;;;4993782;28;20415;-69
2023/04/22 12:08:13;;;;;;;0.40;0.40;;;19.10;47.00;;;;;;4993458;28;20945;-70
2023/04/22 12:10:53;;;;;;;0.50;0.50;;;19.10;47.30;;;;;;4992233;28;20411;-71
2023/04/22 12:13:29;;;;;;;0.60;0.60;;;19.20;48.10;;;;;;4997053;28;20434;-70
2023/04/22 12:15:58;;;;;;;0.80;0.80;;;19.10;49.70;;;;;;4997776;28;20785;-70
2023/04/22 12:18:28;;;;;;;1.67;1.57;;;19.10;49.50;;;;;;4997101;28;20425;-70
2023/04/22 12:21:11;;;;;;;1.00;0.50;;;19.20;50.40;;;;;;4996850;28;20407;-69
2023/04/22 12:23:51;;;;;;;0.50;0.50;;;19.10;52.00;;;;;;4995898;28;20524;-70
2023/04/22 12:26:19;;;;;;;0.50;0.50;;;19.20;53.80;;;;;;4995636;28;20494;-70
2023/04/22 12:28:45;;;;;;;0.57;0.57;;;19.50;55.60;;;;;;4996335;28;20462;-69
2023/04/22 12:31:13;;;;;;;0.40;0.40;;;19.80;54.10;;;;;;4996998;28;20498;-70
2023/04/22 12:33:40;;;;;;;0.60;0.60;;;20.10;51.60;;;;;;4996928;28;20946;-69
2023/04/22 12:36:06;;;;;;;0.50;0.50;;;20.40;50.70;;;;;;4997089;28;20408;-70
2023/04/22 12:38:32;;;;;;;0.80;0.50;;;20.70;51.10;;;;;;4996603;28;20948;-68
2023/04/22 12:40:58;;;;;;;0.60;0.57;;;21.00;50.00;;;;;;4996660;28;20462;-67
2023/04/22 12:43:24;;;;;;;1.03;0.93;;;21.20;50.40;;;;;;4996674;28;20446;-68
2023/04/22 12:45:50;;;;;;;0.60;0.60;;;21.40;50.30;;;;;;4996611;28;20416;-68
2023/04/22 12:48:16;;;;;;;0.40;0.40;;;21.60;49.70;;;;;;4996509;28;20552;-68
2023/04/22 12:50:42;;;;;;;0.50;0.50;;;21.70;49.00;;;;;;4996314;28;20195;-68